sensor_id;sensor_type;location;lat;lon;timestamp;temperature;humidity
25188;DHT22;13141;50.414;8.050;2023-03-03T00:00:29;3.00;96.10
25188;DHT22;13141;50.414;8.050;2023-03-03T00:02:57;3.00;96.20
25188;DHT22;13141;50.414;8.050;2023-03-03T00:05:23;3.00;96.30
25188;DHT22;13141;50.414;8.050;2023-03-03T00:07:49;2.90;96.80
25188;DHT22;13141;50.414;8.050;2023-03-03T00:10:15;2.90;97.20
25188;DHT22;13141;50.414;8.050;2023-03-03T00:12:46;2.80;97.30
25188;DHT22;13141;50.414;8.050;2023-03-03T00:15:17;2.80;98.00
25188;DHT22;13141;50.414;8.050;2023-03-03T00:17:45;2.70;97.70
25188;DHT22;13141;50.414;8.050;2023-03-03T00:20:31;2.70;97.70
25188;DHT22;13141;50.414;8.050;2023-03-03T00:23:12;2.70;97.20
25188;DHT22;13141;50.414;8.050;2023-03-03T00:25:42;2.80;97.20
25188;DHT22;13141;50.414;8.050;2023-03-03T00:28:17;2.80;97.20
25188;DHT22;13141;50.414;8.050;2023-03-03T00:30:44;2.80;97.60
25188;DHT22;13141;50.414;8.050;2023-03-03T00:33:22;2.80;97.60
25188;DHT22;13141;50.414;8.050;2023-03-03T00:35:48;2.80;97.00
25188;DHT22;13141;50.414;8.050;2023-03-03T00:38:16;2.80;97.20
25188;DHT22;13141;50.414;8.050;2023-03-03T00:40:42;2.80;97.20
25188;DHT22;13141;50.414;8.050;2023-03-03T00:43:17;2.80;97.60
25188;DHT22;13141;50.414;8.050;2023-03-03T00:45:45;2.70;97.70
25188;DHT22;13141;50.414;8.050;2023-03-03T00:48:23;2.60;98.10
25188;DHT22;13141;50.414;8.050;2023-03-03T00:50:50;2.60;98.50
25188;DHT22;13141;50.414;8.050;2023-03-03T00:53:17;2.60;98.40
25188;DHT22;13141;50.414;8.050;2023-03-03T00:55:44;2.60;97.90
25188;DHT22;13141;50.414;8.050;2023-03-03T00:58:10;2.50;98.10
25188;DHT22;13141;50.414;8.050;2023-03-03T01:00:37;2.50;98.20
25188;DHT22;13141;50.414;8.050;2023-03-03T01:03:05;2.50;98.30
25188;DHT22;13141;50.414;8.050;2023-03-03T01:05:32;2.40;98.50
25188;DHT22;13141;50.414;8.050;2023-03-03T01:07:58;2.20;98.20
25188;DHT22;13141;50.414;8.050;2023-03-03T01:10:24;1.80;98.80
25188;DHT22;13141;50.414;8.050;2023-03-03T01:12:51;1.50;99.50
25188;DHT22;13141;50.414;8.050;2023-03-03T01:15:16;1.30;99.90
25188;DHT22;13141;50.414;8.050;2023-03-03T01:17:42;1.40;99.90
25188;DHT22;13141;50.414;8.050;2023-03-03T01:20:10;1.50;99.90
25188;DHT22;13141;50.414;8.050;2023-03-03T01:22:38;1.70;99.90
25188;DHT22;13141;50.414;8.050;2023-03-03T01:25:04;1.80;99.60
25188;DHT22;13141;50.414;8.050;2023-03-03T01:27:30;1.90;99.70
25188;DHT22;13141;50.414;8.050;2023-03-03T01:29:56;1.30;99.00
25188;DHT22;13141;50.414;8.050;2023-03-03T01:32:22;2.00;99.30
25188;DHT22;13141;50.414;8.050;2023-03-03T01:34:48;2.10;99.40
25188;DHT22;13141;50.414;8.050;2023-03-03T01:37:14;2.10;99.20
25188;DHT22;13141;50.414;8.050;2023-03-03T01:39:41;2.10;99.50
25188;DHT22;13141;50.414;8.050;2023-03-03T01:42:06;2.00;99.70
25188;DHT22;13141;50.414;8.050;2023-03-03T01:44:32;1.90;99.90
25188;DHT22;13141;50.414;8.050;2023-03-03T01:47:03;1.90;99.80
25188;DHT22;13141;50.414;8.050;2023-03-03T01:49:33;1.90;99.80
25188;DHT22;13141;50.414;8.050;2023-03-03T01:52:00;1.90;99.20
25188;DHT22;13141;50.414;8.050;2023-03-03T01:54:29;1.90;99.60
25188;DHT22;13141;50.414;8.050;2023-03-03T01:56:59;1.90;99.90
25188;DHT22;13141;50.414;8.050;2023-03-03T01:59:28;1.80;99.90
25188;DHT22;13141;50.414;8.050;2023-03-03T02:01:55;1.70;99.90
25188;DHT22;13141;50.414;8.050;2023-03-03T02:04:21;1.80;99.80
25188;DHT22;13141;50.414;8.050;2023-03-03T02:06:51;1.80;99.70
25188;DHT22;13141;50.414;8.050;2023-03-03T02:09:21;1.80;99.60
25188;DHT22;13141;50.414;8.050;2023-03-03T02:11:50;1.80;99.70
25188;DHT22;13141;50.414;8.050;2023-03-03T02:14:18;1.70;99.90
25188;DHT22;13141;50.414;8.050;2023-03-03T02:16:44;1.70;99.90
25188;DHT22;13141;50.414;8.050;2023-03-03T02:19:16;1.60;99.90
25188;DHT22;13141;50.414;8.050;2023-03-03T02:21:43;1.70;99.90
25188;DHT22;13141;50.414;8.050;2023-03-03T02:24:14;1.70;99.90
25188;DHT22;13141;50.414;8.050;2023-03-03T02:26:43;1.80;99.90
25188;DHT22;13141;50.414;8.050;2023-03-03T02:29:10;1.80;99.70
25188;DHT22;13141;50.414;8.050;2023-03-03T02:31:36;1.70;99.90
25188;DHT22;13141;50.414;8.050;2023-03-03T02:34:02;1.70;99.90
25188;DHT22;13141;50.414;8.050;2023-03-03T02:36:30;1.60;99.80
25188;DHT22;13141;50.414;8.050;2023-03-03T02:39:02;1.60;99.80
25188;DHT22;13141;50.414;8.050;2023-03-03T02:41:32;1.70;99.90
25188;DHT22;13141;50.414;8.050;2023-03-03T02:44:02;1.70;99.60
25188;DHT22;13141;50.414;8.050;2023-03-03T02:46:31;1.60;99.90
25188;DHT22;13141;50.414;8.050;2023-03-03T02:48:57;1.60;99.70
25188;DHT22;13141;50.414;8.050;2023-03-03T02:51:23;1.60;99.80
25188;DHT22;13141;50.414;8.050;2023-03-03T02:53:48;1.60;99.90
25188;DHT22;13141;50.414;8.050;2023-03-03T02:56:16;1.50;99.90
25188;DHT22;13141;50.414;8.050;2023-03-03T02:58:42;1.50;99.90
25188;DHT22;13141;50.414;8.050;2023-03-03T03:01:09;1.40;99.90
25188;DHT22;13141;50.414;8.050;2023-03-03T03:03:35;1.30;99.90
25188;DHT22;13141;50.414;8.050;2023-03-03T03:06:00;1.10;99.90
25188;DHT22;13141;50.414;8.050;2023-03-03T03:08:26;0.80;99.90
25188;DHT22;13141;50.414;8.050;2023-03-03T03:10:52;1.10;99.90
25188;DHT22;13141;50.414;8.050;2023-03-03T03:13:17;1.00;99.90
25188;DHT22;13141;50.414;8.050;2023-03-03T03:15:44;1.40;99.90
25188;DHT22;13141;50.414;8.050;2023-03-03T03:18:11;1.10;99.90
25188;DHT22;13141;50.414;8.050;2023-03-03T03:20:37;1.00;99.90
25188;DHT22;13141;50.414;8.050;2023-03-03T03:23:03;1.10;99.90
25188;DHT22;13141;50.414;8.050;2023-03-03T03:25:29;1.30;99.90
25188;DHT22;13141;50.414;8.050;2023-03-03T03:27:54;1.10;99.90
25188;DHT22;13141;50.414;8.050;2023-03-03T03:30:20;1.10;99.90
25188;DHT22;13141;50.414;8.050;2023-03-03T03:32:45;1.10;99.90
25188;DHT22;13141;50.414;8.050;2023-03-03T03:35:12;1.10;99.90
25188;DHT22;13141;50.414;8.050;2023-03-03T03:37:38;1.10;99.90
25188;DHT22;13141;50.414;8.050;2023-03-03T03:40:04;1.10;99.90
25188;DHT22;13141;50.414;8.050;2023-03-03T03:42:30;1.10;99.90
25188;DHT22;13141;50.414;8.050;2023-03-03T03:44:56;1.10;99.90
25188;DHT22;13141;50.414;8.050;2023-03-03T03:47:21;1.10;99.90
25188;DHT22;13141;50.414;8.050;2023-03-03T03:49:47;1.10;99.90
25188;DHT22;13141;50.414;8.050;2023-03-03T03:52:14;1.00;99.90
25188;DHT22;13141;50.414;8.050;2023-03-03T03:54:40;1.00;99.90
25188;DHT22;13141;50.414;8.050;2023-03-03T03:57:05;1.00;99.90
25188;DHT22;13141;50.414;8.050;2023-03-03T03:59:31;1.00;99.90
25188;DHT22;13141;50.414;8.050;2023-03-03T04:01:57;1.10;99.90
25188;DHT22;13141;50.414;8.050;2023-03-03T04:04:22;1.10;99.90
25188;DHT22;13141;50.414;8.050;2023-03-03T04:06:48;1.10;99.90
25188;DHT22;13141;50.414;8.050;2023-03-03T04:09:15;0.90;99.90
25188;DHT22;13141;50.414;8.050;2023-03-03T04:11:41;1.10;99.90
25188;DHT22;13141;50.414;8.050;2023-03-03T04:14:06;0.80;99.90
25188;DHT22;13141;50.414;8.050;2023-03-03T04:16:32;0.80;99.90
25188;DHT22;13141;50.414;8.050;2023-03-03T04:18:58;0.80;99.90
25188;DHT22;13141;50.414;8.050;2023-03-03T04:21:24;0.90;99.90
25188;DHT22;13141;50.414;8.050;2023-03-03T04:23:49;0.90;99.90
25188;DHT22;13141;50.414;8.050;2023-03-03T04:26:16;1.10;99.90
25188;DHT22;13141;50.414;8.050;2023-03-03T04:28:42;0.90;99.90
25188;DHT22;13141;50.414;8.050;2023-03-03T04:31:07;0.80;99.90
25188;DHT22;13141;50.414;8.050;2023-03-03T04:33:33;1.00;99.90
25188;DHT22;13141;50.414;8.050;2023-03-03T04:35:59;0.70;99.90
25188;DHT22;13141;50.414;8.050;2023-03-03T04:38:24;0.70;99.90
25188;DHT22;13141;50.414;8.050;2023-03-03T04:40:50;0.80;99.90
25188;DHT22;13141;50.414;8.050;2023-03-03T04:43:17;0.80;99.90
25188;DHT22;13141;50.414;8.050;2023-03-03T04:45:43;0.90;99.90
25188;DHT22;13141;50.414;8.050;2023-03-03T04:48:09;0.90;99.90
25188;DHT22;13141;50.414;8.050;2023-03-03T04:50:34;1.10;99.90
25188;DHT22;13141;50.414;8.050;2023-03-03T04:53:00;0.90;99.90
25188;DHT22;13141;50.414;8.050;2023-03-03T04:55:25;0.90;99.90
25188;DHT22;13141;50.414;8.050;2023-03-03T04:57:51;0.90;99.90
25188;DHT22;13141;50.414;8.050;2023-03-03T05:00:19;1.10;99.90
25188;DHT22;13141;50.414;8.050;2023-03-03T05:02:46;0.80;99.90
25188;DHT22;13141;50.414;8.050;2023-03-03T05:05:12;0.70;99.90
25188;DHT22;13141;50.414;8.050;2023-03-03T05:07:38;0.70;99.90
25188;DHT22;13141;50.414;8.050;2023-03-03T05:10:04;0.60;99.90
25188;DHT22;13141;50.414;8.050;2023-03-03T05:12:30;0.60;99.90
25188;DHT22;13141;50.414;8.050;2023-03-03T05:14:56;0.60;99.90
25188;DHT22;13141;50.414;8.050;2023-03-03T05:17:22;0.80;99.90
25188;DHT22;13141;50.414;8.050;2023-03-03T05:19:48;0.60;99.90
25188;DHT22;13141;50.414;8.050;2023-03-03T05:22:15;0.50;99.90
25188;DHT22;13141;50.414;8.050;2023-03-03T05:24:41;0.50;99.90
25188;DHT22;13141;50.414;8.050;2023-03-03T05:27:06;0.50;99.90
25188;DHT22;13141;50.414;8.050;2023-03-03T05:29:32;0.50;99.90
25188;DHT22;13141;50.414;8.050;2023-03-03T05:31:58;0.50;99.90
25188;DHT22;13141;50.414;8.050;2023-03-03T05:34:25;0.50;99.90
25188;DHT22;13141;50.414;8.050;2023-03-03T05:36:51;0.60;99.90
25188;DHT22;13141;50.414;8.050;2023-03-03T05:39:16;0.50;99.90
25188;DHT22;13141;50.414;8.050;2023-03-03T05:41:42;0.60;99.90
25188;DHT22;13141;50.414;8.050;2023-03-03T05:44:09;0.50;99.90
25188;DHT22;13141;50.414;8.050;2023-03-03T05:46:35;0.20;99.90
25188;DHT22;13141;50.414;8.050;2023-03-03T05:49:00;0.40;99.90
25188;DHT22;13141;50.414;8.050;2023-03-03T05:51:27;0.30;99.90
25188;DHT22;13141;50.414;8.050;2023-03-03T05:53:53;0.40;99.90
25188;DHT22;13141;50.414;8.050;2023-03-03T05:56:19;0.40;99.90
25188;DHT22;13141;50.414;8.050;2023-03-03T05:58:44;0.40;99.90
25188;DHT22;13141;50.414;8.050;2023-03-03T06:01:10;0.40;99.90
25188;DHT22;13141;50.414;8.050;2023-03-03T06:03:36;0.40;99.90
25188;DHT22;13141;50.414;8.050;2023-03-03T06:06:01;0.30;99.90
25188;DHT22;13141;50.414;8.050;2023-03-03T06:08:28;0.30;99.90
25188;DHT22;13141;50.414;8.050;2023-03-03T06:10:54;0.30;99.90
25188;DHT22;13141;50.414;8.050;2023-03-03T06:13:19;0.20;99.90
25188;DHT22;13141;50.414;8.050;2023-03-03T06:15:45;0.20;99.90
25188;DHT22;13141;50.414;8.050;2023-03-03T06:18:11;0.20;99.90
25188;DHT22;13141;50.414;8.050;2023-03-03T06:20:37;0.20;99.90
25188;DHT22;13141;50.414;8.050;2023-03-03T06:23:02;0.30;99.90
25188;DHT22;13141;50.414;8.050;2023-03-03T06:25:29;0.10;99.90
25188;DHT22;13141;50.414;8.050;2023-03-03T06:27:56;0.00;99.90
25188;DHT22;13141;50.414;8.050;2023-03-03T06:30:21;-0.10;99.90
25188;DHT22;13141;50.414;8.050;2023-03-03T06:32:47;-0.30;99.90
25188;DHT22;13141;50.414;8.050;2023-03-03T06:35:12;-0.30;99.90
25188;DHT22;13141;50.414;8.050;2023-03-03T06:37:38;-0.30;99.90
25188;DHT22;13141;50.414;8.050;2023-03-03T06:40:05;-0.30;99.90
25188;DHT22;13141;50.414;8.050;2023-03-03T06:42:32;-0.30;99.90
25188;DHT22;13141;50.414;8.050;2023-03-03T06:44:58;-0.30;99.90
25188;DHT22;13141;50.414;8.050;2023-03-03T06:47:23;-0.40;99.90
25188;DHT22;13141;50.414;8.050;2023-03-03T06:49:49;-0.10;99.90
25188;DHT22;13141;50.414;8.050;2023-03-03T06:52:23;-0.10;99.90
25188;DHT22;13141;50.414;8.050;2023-03-03T06:54:50;0.00;99.90
25188;DHT22;13141;50.414;8.050;2023-03-03T06:57:22;0.10;99.90
25188;DHT22;13141;50.414;8.050;2023-03-03T06:59:52;0.30;99.90
25188;DHT22;13141;50.414;8.050;2023-03-03T07:02:19;0.40;99.90
25188;DHT22;13141;50.414;8.050;2023-03-03T07:04:45;0.50;99.90
25188;DHT22;13141;50.414;8.050;2023-03-03T07:07:16;0.50;99.90
25188;DHT22;13141;50.414;8.050;2023-03-03T07:09:43;0.60;99.90
25188;DHT22;13141;50.414;8.050;2023-03-03T07:12:11;0.70;99.90
25188;DHT22;13141;50.414;8.050;2023-03-03T07:14:40;0.70;99.90
25188;DHT22;13141;50.414;8.050;2023-03-03T07:17:14;0.70;99.90
25188;DHT22;13141;50.414;8.050;2023-03-03T07:19:39;0.70;99.90
25188;DHT22;13141;50.414;8.050;2023-03-03T07:22:13;0.80;99.90
25188;DHT22;13141;50.414;8.050;2023-03-03T07:24:40;0.90;99.90
25188;DHT22;13141;50.414;8.050;2023-03-03T07:27:11;0.90;99.90
25188;DHT22;13141;50.414;8.050;2023-03-03T07:29:37;1.00;99.90
25188;DHT22;13141;50.414;8.050;2023-03-03T07:32:18;1.10;99.90
25188;DHT22;13141;50.414;8.050;2023-03-03T07:34:48;1.10;99.90
25188;DHT22;13141;50.414;8.050;2023-03-03T07:37:17;1.10;99.90
25188;DHT22;13141;50.414;8.050;2023-03-03T07:39:46;0.80;99.90
25188;DHT22;13141;50.414;8.050;2023-03-03T07:42:20;1.30;99.90
25188;DHT22;13141;50.414;8.050;2023-03-03T07:44:49;1.50;99.90
25188;DHT22;13141;50.414;8.050;2023-03-03T07:47:20;1.60;99.90
25188;DHT22;13141;50.414;8.050;2023-03-03T07:49:48;1.80;99.90
25188;DHT22;13141;50.414;8.050;2023-03-03T07:52:23;2.00;99.90
25188;DHT22;13141;50.414;8.050;2023-03-03T07:54:49;2.20;99.90
25188;DHT22;13141;50.414;8.050;2023-03-03T07:57:22;2.30;99.90
25188;DHT22;13141;50.414;8.050;2023-03-03T07:59:50;2.50;99.90
25188;DHT22;13141;50.414;8.050;2023-03-03T08:02:39;2.70;99.90
25188;DHT22;13141;50.414;8.050;2023-03-03T08:05:27;2.70;99.90
25188;DHT22;13141;50.414;8.050;2023-03-03T08:07:56;2.90;99.90
25188;DHT22;13141;50.414;8.050;2023-03-03T08:10:35;3.00;99.90
25188;DHT22;13141;50.414;8.050;2023-03-03T08:13:08;3.20;99.90
25188;DHT22;13141;50.414;8.050;2023-03-03T08:15:36;3.30;99.90
25188;DHT22;13141;50.414;8.050;2023-03-03T08:18:18;3.40;99.90
25188;DHT22;13141;50.414;8.050;2023-03-03T08:20:47;3.50;99.90
25188;DHT22;13141;50.414;8.050;2023-03-03T08:23:14;3.50;99.90
25188;DHT22;13141;50.414;8.050;2023-03-03T08:25:40;3.50;99.90
25188;DHT22;13141;50.414;8.050;2023-03-03T08:28:06;3.50;99.90
25188;DHT22;13141;50.414;8.050;2023-03-03T08:30:31;3.40;99.90
25188;DHT22;13141;50.414;8.050;2023-03-03T08:32:57;3.50;99.90
25188;DHT22;13141;50.414;8.050;2023-03-03T08:35:24;3.40;99.90
25188;DHT22;13141;50.414;8.050;2023-03-03T08:37:50;3.40;99.90
25188;DHT22;13141;50.414;8.050;2023-03-03T08:40:15;3.40;99.90
25188;DHT22;13141;50.414;8.050;2023-03-03T08:42:41;3.50;99.90
25188;DHT22;13141;50.414;8.050;2023-03-03T08:45:07;3.50;99.90
25188;DHT22;13141;50.414;8.050;2023-03-03T08:47:32;3.50;99.90
25188;DHT22;13141;50.414;8.050;2023-03-03T08:49:58;3.60;99.90
25188;DHT22;13141;50.414;8.050;2023-03-03T08:52:25;3.60;99.90
25188;DHT22;13141;50.414;8.050;2023-03-03T08:54:50;3.60;99.90
25188;DHT22;13141;50.414;8.050;2023-03-03T08:57:16;3.60;99.90
25188;DHT22;13141;50.414;8.050;2023-03-03T08:59:42;3.60;99.90
25188;DHT22;13141;50.414;8.050;2023-03-03T09:02:07;3.60;99.90
25188;DHT22;13141;50.414;8.050;2023-03-03T09:04:33;3.60;99.90
25188;DHT22;13141;50.414;8.050;2023-03-03T09:06:59;3.70;99.90
25188;DHT22;13141;50.414;8.050;2023-03-03T09:09:26;3.70;99.90
25188;DHT22;13141;50.414;8.050;2023-03-03T09:11:52;3.80;99.90
25188;DHT22;13141;50.414;8.050;2023-03-03T09:14:19;3.80;99.90
25188;DHT22;13141;50.414;8.050;2023-03-03T09:16:50;3.80;99.90
25188;DHT22;13141;50.414;8.050;2023-03-03T09:19:21;4.00;99.90
25188;DHT22;13141;50.414;8.050;2023-03-03T09:21:48;4.10;99.90
25188;DHT22;13141;50.414;8.050;2023-03-03T09:24:22;4.40;99.90
25188;DHT22;13141;50.414;8.050;2023-03-03T09:26:50;4.50;99.90
25188;DHT22;13141;50.414;8.050;2023-03-03T09:29:24;4.60;99.90
25188;DHT22;13141;50.414;8.050;2023-03-03T09:31:51;5.00;99.90
25188;DHT22;13141;50.414;8.050;2023-03-03T09:34:22;5.40;99.90
25188;DHT22;13141;50.414;8.050;2023-03-03T09:36:50;5.90;99.90
25188;DHT22;13141;50.414;8.050;2023-03-03T09:39:18;6.40;99.90
25188;DHT22;13141;50.414;8.050;2023-03-03T09:42:11;6.70;99.90
25188;DHT22;13141;50.414;8.050;2023-03-03T09:47:45;7.40;99.60
25188;DHT22;13141;50.414;8.050;2023-03-03T09:50:21;7.70;98.80
25188;DHT22;13141;50.414;8.050;2023-03-03T09:52:59;7.90;99.40
25188;DHT22;13141;50.414;8.050;2023-03-03T09:55:38;7.90;97.90
25188;DHT22;13141;50.414;8.050;2023-03-03T10:01:17;8.40;98.80
25188;DHT22;13141;50.414;8.050;2023-03-03T10:03:59;8.70;97.90
25188;DHT22;13141;50.414;8.050;2023-03-03T10:06:32;9.00;97.70
25188;DHT22;13141;50.414;8.050;2023-03-03T10:09:08;9.10;97.30
25188;DHT22;13141;50.414;8.050;2023-03-03T10:11:48;9.40;97.30
25188;DHT22;13141;50.414;8.050;2023-03-03T10:14:40;9.80;97.30
25188;DHT22;13141;50.414;8.050;2023-03-03T10:17:16;10.00;95.90
25188;DHT22;13141;50.414;8.050;2023-03-03T10:19:52;10.30;96.00
25188;DHT22;13141;50.414;8.050;2023-03-03T10:22:32;10.50;95.30
25188;DHT22;13141;50.414;8.050;2023-03-03T10:25:07;10.60;95.00
25188;DHT22;13141;50.414;8.050;2023-03-03T10:27:52;10.50;94.90
25188;DHT22;13141;50.414;8.050;2023-03-03T10:30:31;10.30;95.00
25188;DHT22;13141;50.414;8.050;2023-03-03T10:33:01;9.80;94.80
25188;DHT22;13141;50.414;8.050;2023-03-03T10:35:45;9.90;95.20
25188;DHT22;13141;50.414;8.050;2023-03-03T10:38:35;10.20;95.10
25188;DHT22;13141;50.414;8.050;2023-03-03T10:41:18;10.60;94.70
25188;DHT22;13141;50.414;8.050;2023-03-03T10:43:55;11.10;94.70
25188;DHT22;13141;50.414;8.050;2023-03-03T10:46:45;11.40;94.10
25188;DHT22;13141;50.414;8.050;2023-03-03T10:49:25;11.60;93.70
25188;DHT22;13141;50.414;8.050;2023-03-03T10:52:03;11.70;93.70
25188;DHT22;13141;50.414;8.050;2023-03-03T10:54:46;11.60;93.80
25188;DHT22;13141;50.414;8.050;2023-03-03T10:57:18;11.50;93.00
25188;DHT22;13141;50.414;8.050;2023-03-03T11:00:01;11.70;92.50
25188;DHT22;13141;50.414;8.050;2023-03-03T11:02:33;11.90;92.80
25188;DHT22;13141;50.414;8.050;2023-03-03T11:05:21;12.30;93.80
25188;DHT22;13141;50.414;8.050;2023-03-03T11:07:55;12.60;92.60
25188;DHT22;13141;50.414;8.050;2023-03-03T11:10:29;12.80;91.40
25188;DHT22;13141;50.414;8.050;2023-03-03T11:13:05;13.00;91.40
25188;DHT22;13141;50.414;8.050;2023-03-03T11:15:40;13.30;91.30
25188;DHT22;13141;50.414;8.050;2023-03-03T11:18:18;13.50;90.80
25188;DHT22;13141;50.414;8.050;2023-03-03T11:20:54;13.40;89.60
25188;DHT22;13141;50.414;8.050;2023-03-03T11:23:38;13.50;90.80
25188;DHT22;13141;50.414;8.050;2023-03-03T11:26:08;13.80;90.00
25188;DHT22;13141;50.414;8.050;2023-03-03T11:28:52;14.00;89.00
25188;DHT22;13141;50.414;8.050;2023-03-03T11:31:25;14.30;89.70
25188;DHT22;13141;50.414;8.050;2023-03-03T11:33:59;14.40;89.70
25188;DHT22;13141;50.414;8.050;2023-03-03T11:36:28;14.60;87.10
25188;DHT22;13141;50.414;8.050;2023-03-03T11:38:57;14.70;86.40
25188;DHT22;13141;50.414;8.050;2023-03-03T11:41:29;14.10;84.80
25188;DHT22;13141;50.414;8.050;2023-03-03T11:44:01;13.60;83.50
25188;DHT22;13141;50.414;8.050;2023-03-03T11:46:33;13.40;86.20
25188;DHT22;13141;50.414;8.050;2023-03-03T11:49:04;13.90;88.80
25188;DHT22;13141;50.414;8.050;2023-03-03T11:51:43;14.50;86.00
25188;DHT22;13141;50.414;8.050;2023-03-03T11:54:16;14.40;85.00
25188;DHT22;13141;50.414;8.050;2023-03-03T11:56:45;14.40;84.20
25188;DHT22;13141;50.414;8.050;2023-03-03T11:59:36;14.60;83.10
25188;DHT22;13141;50.414;8.050;2023-03-03T12:02:14;14.90;86.60
25188;DHT22;13141;50.414;8.050;2023-03-03T12:04:50;15.40;84.90
25188;DHT22;13141;50.414;8.050;2023-03-03T12:07:25;15.60;84.90
25188;DHT22;13141;50.414;8.050;2023-03-03T12:10:05;15.60;83.60
25188;DHT22;13141;50.414;8.050;2023-03-03T12:12:35;15.60;78.70
25188;DHT22;13141;50.414;8.050;2023-03-03T12:15:12;15.40;81.30
25188;DHT22;13141;50.414;8.050;2023-03-03T12:18:14;16.00;82.90
25188;DHT22;13141;50.414;8.050;2023-03-03T12:20:50;16.40;80.00
25188;DHT22;13141;50.414;8.050;2023-03-03T12:23:35;16.60;75.30
25188;DHT22;13141;50.414;8.050;2023-03-03T12:26:10;16.60;78.30
25188;DHT22;13141;50.414;8.050;2023-03-03T12:28:41;16.70;78.90
25188;DHT22;13141;50.414;8.050;2023-03-03T12:31:16;16.90;77.30
25188;DHT22;13141;50.414;8.050;2023-03-03T12:33:54;17.20;80.20
25188;DHT22;13141;50.414;8.050;2023-03-03T12:36:41;17.40;79.90
25188;DHT22;13141;50.414;8.050;2023-03-03T12:39:11;17.80;77.80
25188;DHT22;13141;50.414;8.050;2023-03-03T12:41:44;18.00;76.00
25188;DHT22;13141;50.414;8.050;2023-03-03T12:44:17;18.20;78.80
25188;DHT22;13141;50.414;8.050;2023-03-03T12:46:54;18.40;75.40
25188;DHT22;13141;50.414;8.050;2023-03-03T12:49:25;18.50;73.10
25188;DHT22;13141;50.414;8.050;2023-03-03T12:52:05;18.70;73.50
25188;DHT22;13141;50.414;8.050;2023-03-03T12:54:48;18.80;74.20
25188;DHT22;13141;50.414;8.050;2023-03-03T12:57:23;18.90;73.60
25188;DHT22;13141;50.414;8.050;2023-03-03T13:00:11;19.10;70.90
25188;DHT22;13141;50.414;8.050;2023-03-03T13:02:44;19.10;70.70
25188;DHT22;13141;50.414;8.050;2023-03-03T13:05:19;19.10;71.20
25188;DHT22;13141;50.414;8.050;2023-03-03T13:07:58;19.40;73.70
25188;DHT22;13141;50.414;8.050;2023-03-03T13:10:30;19.40;69.00
25188;DHT22;13141;50.414;8.050;2023-03-03T13:13:00;19.50;69.90
25188;DHT22;13141;50.414;8.050;2023-03-03T13:15:29;19.60;70.40
25188;DHT22;13141;50.414;8.050;2023-03-03T13:18:04;19.60;70.10
25188;DHT22;13141;50.414;8.050;2023-03-03T13:20:39;19.70;72.80
25188;DHT22;13141;50.414;8.050;2023-03-03T13:23:16;19.70;71.60
25188;DHT22;13141;50.414;8.050;2023-03-03T13:25:50;19.70;66.50
25188;DHT22;13141;50.414;8.050;2023-03-03T13:28:24;19.50;68.70
25188;DHT22;13141;50.414;8.050;2023-03-03T13:30:56;19.10;67.00
25188;DHT22;13141;50.414;8.050;2023-03-03T13:33:25;19.00;67.80
25188;DHT22;13141;50.414;8.050;2023-03-03T13:35:54;19.20;68.60
25188;DHT22;13141;50.414;8.050;2023-03-03T13:38:24;19.00;66.70
25188;DHT22;13141;50.414;8.050;2023-03-03T13:40:56;19.20;69.40
25188;DHT22;13141;50.414;8.050;2023-03-03T13:43:28;19.40;66.60
25188;DHT22;13141;50.414;8.050;2023-03-03T13:46:01;19.40;67.00
25188;DHT22;13141;50.414;8.050;2023-03-03T13:48:50;18.90;64.40
25188;DHT22;13141;50.414;8.050;2023-03-03T13:51:25;19.10;68.40
25188;DHT22;13141;50.414;8.050;2023-03-03T13:54:02;19.50;66.60
25188;DHT22;13141;50.414;8.050;2023-03-03T13:56:49;19.70;64.90
25188;DHT22;13141;50.414;8.050;2023-03-03T13:59:25;19.90;68.20
25188;DHT22;13141;50.414;8.050;2023-03-03T14:02:00;19.90;64.10
25188;DHT22;13141;50.414;8.050;2023-03-03T14:04:39;19.90;65.90
25188;DHT22;13141;50.414;8.050;2023-03-03T14:07:12;19.80;66.00
25188;DHT22;13141;50.414;8.050;2023-03-03T14:09:51;19.70;63.60
25188;DHT22;13141;50.414;8.050;2023-03-03T14:12:26;19.60;67.10
25188;DHT22;13141;50.414;8.050;2023-03-03T14:15:00;19.60;67.00
25188;DHT22;13141;50.414;8.050;2023-03-03T14:17:31;19.60;64.20
25188;DHT22;13141;50.414;8.050;2023-03-03T14:20:09;19.60;64.60
25188;DHT22;13141;50.414;8.050;2023-03-03T14:22:43;19.50;65.70
25188;DHT22;13141;50.414;8.050;2023-03-03T14:25:12;19.40;65.30
25188;DHT22;13141;50.414;8.050;2023-03-03T14:27:40;19.20;64.40
25188;DHT22;13141;50.414;8.050;2023-03-03T14:30:31;19.00;63.70
25188;DHT22;13141;50.414;8.050;2023-03-03T14:33:13;18.80;64.30
25188;DHT22;13141;50.414;8.050;2023-03-03T14:35:41;18.60;64.00
25188;DHT22;13141;50.414;8.050;2023-03-03T14:38:11;18.60;64.30
25188;DHT22;13141;50.414;8.050;2023-03-03T14:40:40;18.50;65.10
25188;DHT22;13141;50.414;8.050;2023-03-03T14:43:21;18.60;66.30
25188;DHT22;13141;50.414;8.050;2023-03-03T14:45:47;18.70;67.00
25188;DHT22;13141;50.414;8.050;2023-03-03T14:48:16;18.60;67.60
25188;DHT22;13141;50.414;8.050;2023-03-03T14:50:44;18.60;67.10
25188;DHT22;13141;50.414;8.050;2023-03-03T14:53:15;18.60;66.70
25188;DHT22;13141;50.414;8.050;2023-03-03T14:55:47;18.70;66.60
25188;DHT22;13141;50.414;8.050;2023-03-03T14:58:25;18.50;65.70
25188;DHT22;13141;50.414;8.050;2023-03-03T15:01:19;18.50;65.80
25188;DHT22;13141;50.414;8.050;2023-03-03T15:03:48;18.60;67.20
25188;DHT22;13141;50.414;8.050;2023-03-03T15:06:39;18.40;64.50
25188;DHT22;13141;50.414;8.050;2023-03-03T15:09:28;18.20;63.90
25188;DHT22;13141;50.414;8.050;2023-03-03T15:11:57;18.00;65.10
25188;DHT22;13141;50.414;8.050;2023-03-03T15:14:31;17.80;65.60
25188;DHT22;13141;50.414;8.050;2023-03-03T15:17:16;17.70;64.50
25188;DHT22;13141;50.414;8.050;2023-03-03T15:19:49;17.70;65.50
25188;DHT22;13141;50.414;8.050;2023-03-03T15:22:21;17.60;66.30
25188;DHT22;13141;50.414;8.050;2023-03-03T15:24:57;17.50;65.50
25188;DHT22;13141;50.414;8.050;2023-03-03T15:27:28;17.20;65.00
25188;DHT22;13141;50.414;8.050;2023-03-03T15:30:07;17.00;65.60
25188;DHT22;13141;50.414;8.050;2023-03-03T15:32:41;16.70;65.90
25188;DHT22;13141;50.414;8.050;2023-03-03T15:35:22;16.60;65.80
25188;DHT22;13141;50.414;8.050;2023-03-03T15:37:55;16.30;67.10
25188;DHT22;13141;50.414;8.050;2023-03-03T15:40:26;16.00;67.40
25188;DHT22;13141;50.414;8.050;2023-03-03T15:43:02;16.00;68.20
25188;DHT22;13141;50.414;8.050;2023-03-03T15:45:32;16.10;68.30
25188;DHT22;13141;50.414;8.050;2023-03-03T15:50:54;15.70;67.50
25188;DHT22;13141;50.414;8.050;2023-03-03T15:53:37;15.50;68.10
25188;DHT22;13141;50.414;8.050;2023-03-03T15:56:17;15.10;68.80
25188;DHT22;13141;50.414;8.050;2023-03-03T15:59:04;15.00;68.10
25188;DHT22;13141;50.414;8.050;2023-03-03T16:01:32;14.90;69.50
25188;DHT22;13141;50.414;8.050;2023-03-03T16:04:00;14.70;69.70
25188;DHT22;13141;50.414;8.050;2023-03-03T16:06:38;14.60;69.50
25188;DHT22;13141;50.414;8.050;2023-03-03T16:09:15;14.40;69.50
25188;DHT22;13141;50.414;8.050;2023-03-03T16:11:46;14.40;71.30